Airport View

Enter ICAO identifier to see the current METAR for that AWOS.

KFNL for example

KPIT 241651Z VRB03KT 10SM FEW100 SCT140 SCT250 11/M08 A3012 RMK AO2 SLP214 T01111083

24 Apr 2014 17:05

Phone: 412-472-0145

Other Area AWOS: KAGC - KBVI - KBTP - KAFJ

TAF AMD KPIT 241445Z 2415/2518 VRB03KT P6SM BKN120 FM251500 15010G16KT P6SM -SHRA OVC050